METAR Data
IDs: Format: Raw Decoded Include TAF

Data at: 0008 UTC 02 Dec 2020

KMGJ 012354Z AUTO 24011G19KT 10SM BKN039 OVC049 03/M02 A2965 RMK AO2 RAB16E40 SLP043 P0000 60002 T00331022 10083 20033 53029